FE Warren AFB, Wyoming
Current Conditions -  °F | °C
As of 2:56 PM on Sunday 25 Jan 2015 (Local Time) from KFEW Reporting Station
Clear Clear  
Wind Chill: 51°   Ceiling: Unl
Heat Index: 51°   Visibility: 10mi
Dew Point: 26°   Wind: 18mph
Humidity: 38%   Direction: 320°NW
Pressure: 30.07"   Gusts: 26mph
Location:  41.139°N, 104.862°W
Report Text: KFEW 252156Z AUTO 32016G23KT 10SM CLR 11/M03 A3007 RMK AO2 SLP167 T01051033 $
Loading
Personal Weather Stations






























Interactive Weather Map New forecast layout! Learn more

10-Day Weather Forecast

Advertisements
Track Severe Weather on mobile